Frisco, Texas
Current Conditions -  °F | °C
As of 7:47 PM on Saturday 22 Nov 2014 (Local Time) from KADS Reporting Station
Moderate Rain Moderate Rain  
Wind Chill: 61°   Ceiling: 4200
Heat Index: 61°   Visibility: 9mi
Dew Point: 57°   Wind: 7mph
Humidity: 88%   Direction: 130°SE
Pressure: 29.84"   Gusts: NA
Location:  33.15°N, 96.82°W
Report Text: KADS 230147Z 13006KT 9SM RA FEW010 BKN042 16/14 A2984
Loading
Personal Weather Stations






























Interactive Weather Map New forecast layout! Learn more

10-Day Weather Forecast

Advertisements
Track Severe Weather on mobile